Time;durP1;ratioP1;P1;durP2;ratioP2;P2;SDS_P1;SDS_P2;PMS_P1;PMS_P2;Temp;Humidity;BMP_temperature;BMP_pressure;BME280_temperature;BME280_humidity;BME280_pressure;Samples;Min_cycle;Max_cycle;Signal;HPM_P1;HPM_P2
2023/09/08 00:01:42;;;;;;;8.13;6.57;;;;;;;;;;4917024;29;20188;-88
2023/09/08 00:04:47;;;;;;;9.53;6.10;;;;;;;;;;4906150;29;20185;-88
2023/09/08 00:07:51;;;;;;;7.07;5.13;;;;;;;;;;4895374;29;20188;-88
2023/09/08 00:10:55;;;;;;;7.53;5.83;;;;;;;;;;4906454;29;20173;-88
2023/09/08 00:13:59;;;;;;;8.93;6.23;;;;;;;;;;4905965;29;20236;-89
2023/09/08 00:17:04;;;;;;;7.17;5.97;;;;;;;;;;4916875;29;20184;-88
2023/09/08 00:20:08;;;;;;;6.30;5.70;;;;;;;;;;4917407;29;20528;-88
2023/09/08 00:23:12;;;;;;;8.57;6.03;;;;;;;;;;4905933;29;20221;-88
2023/09/08 00:26:16;;;;;;;7.17;6.00;;;;;;;;;;4905354;29;20185;-88
2023/09/08 00:29:21;;;;;;;7.70;5.93;;;;;;;;;;4905790;29;20217;-88
2023/09/08 00:32:25;;;;;;;9.40;5.43;;;;;;;;;;4905937;29;20224;-87
2023/09/08 00:35:29;;;;;;;8.73;5.80;;;;;;;;;;4895163;29;20188;-88
2023/09/08 00:38:33;;;;;;;6.57;5.87;;;;;;;;;;4916865;29;20517;-88
2023/09/08 00:41:37;;;;;;;6.23;5.63;;;;;;;;;;4916827;29;20185;-88
2023/09/08 00:44:42;;;;;;;6.40;5.67;;;;;;;;;;4905787;29;20193;-88
2023/09/08 00:47:46;;;;;;;7.27;5.83;;;;;;;;;;4916611;29;20193;-88
2023/09/08 00:50:50;;;;;;;6.77;5.33;;;;;;;;;;4895174;29;20639;-88
2023/09/08 00:53:54;;;;;;;6.50;5.80;;;;;;;;;;4895067;29;20216;-88
2023/09/08 00:57:02;;;;;;;11.40;6.00;;;;;;;;;;4895137;29;20188;-88
2023/09/08 01:00:06;;;;;;;7.80;6.57;;;;;;;;;;4905640;29;20181;-88
2023/09/08 01:03:11;;;;;;;7.47;6.37;;;;;;;;;;4916180;29;20228;-88
2023/09/08 01:06:17;;;;;;;9.63;7.30;;;;;;;;;;4905755;29;20189;-88
2023/09/08 01:09:21;;;;;;;7.50;6.70;;;;;;;;;;4905739;29;20661;-88
2023/09/08 01:12:25;;;;;;;10.23;7.20;;;;;;;;;;4905514;29;20571;-88
2023/09/08 01:15:30;;;;;;;9.20;7.57;;;;;;;;;;4905530;29;20181;-88
2023/09/08 01:18:34;;;;;;;11.33;8.33;;;;;;;;;;4894927;29;20185;-88
2023/09/08 01:21:47;;;;;;;8.80;7.43;;;;;;;;;;4905739;29;20181;-88
2023/09/08 01:25:18;;;;;;;10.73;8.63;;;;;;;;;;4895245;29;20185;-88
2023/09/08 01:28:24;;;;;;;9.10;8.00;;;;;;;;;;4905585;29;20643;-88
2023/09/08 01:31:28;;;;;;;11.17;8.57;;;;;;;;;;4895128;29;20185;-88
2023/09/08 01:34:33;;;;;;;11.80;8.63;;;;;;;;;;4905492;29;20181;-88
2023/09/08 01:37:42;;;;;;;10.87;7.63;;;;;;;;;;4906268;29;20524;-88
2023/09/08 01:40:46;;;;;;;6.83;6.13;;;;;;;;;;4910644;29;20173;-85
2023/09/08 01:43:51;;;;;;;8.83;6.10;;;;;;;;;;4900440;29;20224;-85
2023/09/08 01:46:56;;;;;;;10.23;6.60;;;;;;;;;;4912069;29;20180;-85
2023/09/08 01:50:01;;;;;;;9.80;6.13;;;;;;;;;;4912407;29;20212;-85
2023/09/08 01:53:05;;;;;;;6.87;6.17;;;;;;;;;;4910826;29;20225;-85
2023/09/08 01:56:09;;;;;;;7.03;5.57;;;;;;;;;;4910742;29;20185;-85
2023/09/08 01:59:13;;;;;;;7.57;6.30;;;;;;;;;;4911567;29;20528;-84
2023/09/08 02:02:17;;;;;;;8.07;5.70;;;;;;;;;;4911358;29;20220;-85
2023/09/08 02:05:22;;;;;;;6.90;6.00;;;;;;;;;;4911021;29;20189;-85
2023/09/08 02:08:26;;;;;;;5.93;5.33;;;;;;;;;;4900312;29;20188;-85
2023/09/08 02:11:30;;;;;;;5.60;5.07;;;;;;;;;;4921930;29;20188;-85
2023/09/08 02:14:35;;;;;;;6.67;5.23;;;;;;;;;;4900280;29;20208;-85
2023/09/08 02:17:39;;;;;;;8.10;5.70;;;;;;;;;;4912019;29;20185;-85
2023/09/08 02:20:43;;;;;;;7.77;5.97;;;;;;;;;;4921822;29;20185;-85
2023/09/08 02:23:47;;;;;;;9.73;5.70;;;;;;;;;;4910944;29;20217;-85
2023/09/08 02:26:53;;;;;;;5.57;5.00;;;;;;;;;;4922564;29;20189;-85
2023/09/08 02:29:57;;;;;;;6.23;5.43;;;;;;;;;;4921910;29;20209;-85
2023/09/08 02:33:02;;;;;;;13.13;6.67;;;;;;;;;;4911065;29;20221;-84
2023/09/08 02:36:07;;;;;;;6.97;5.40;;;;;;;;;;4921921;29;20189;-85
2023/09/08 02:39:13;;;;;;;7.43;5.93;;;;;;;;;;4911263;29;20177;-85
2023/09/08 02:42:17;;;;;;;8.30;6.33;;;;;;;;;;4911086;29;20220;-85
2023/09/08 02:45:21;;;;;;;7.80;5.47;;;;;;;;;;4922183;29;20184;-85
2023/09/08 02:48:27;;;;;;;7.37;5.83;;;;;;;;;;4921132;29;20651;-85
2023/09/08 02:51:31;;;;;;;7.33;6.00;;;;;;;;;;4910479;29;20177;-84
2023/09/08 02:54:36;;;;;;;8.90;5.70;;;;;;;;;;4920700;29;20188;-85
2023/09/08 02:57:40;;;;;;;7.47;6.07;;;;;;;;;;4921428;29;20193;-84
2023/09/08 03:00:44;;;;;;;8.03;5.97;;;;;;;;;;4899892;29;20181;-84
2023/09/08 03:03:49;;;;;;;7.03;6.10;;;;;;;;;;4902518;29;20229;-84
2023/09/08 03:06:54;;;;;;;8.37;5.63;;;;;;;;;;4902948;29;20186;-85
2023/09/08 03:09:58;;;;;;;6.33;5.53;;;;;;;;;;4891873;29;20209;-85
2023/09/08 03:13:03;;;;;;;8.80;5.83;;;;;;;;;;4901906;29;20221;-85
2023/09/08 03:16:08;;;;;;;8.93;5.73;;;;;;;;;;4902461;29;20647;-84
2023/09/08 03:19:12;;;;;;;6.57;5.37;;;;;;;;;;4901597;29;20189;-84
2023/09/08 03:22:16;;;;;;;7.37;5.87;;;;;;;;;;4891345;29;20221;-84
2023/09/08 03:25:21;;;;;;;9.20;6.07;;;;;;;;;;4902373;29;20189;-84
2023/09/08 03:28:25;;;;;;;8.60;5.97;;;;;;;;;;4912649;29;20189;-85
2023/09/08 03:31:30;;;;;;;7.83;6.10;;;;;;;;;;4902342;29;20643;-84
2023/09/08 03:34:34;;;;;;;6.83;5.57;;;;;;;;;;4903218;29;20190;-85
2023/09/08 03:37:39;;;;;;;7.23;5.57;;;;;;;;;;4902144;29;20623;-85
2023/09/08 03:40:43;;;;;;;8.73;5.90;;;;;;;;;;4913084;29;20177;-84
2023/09/08 03:43:49;;;;;;;7.40;6.30;;;;;;;;;;4890807;29;20694;-85
2023/09/08 03:46:53;;;;;;;6.73;6.03;;;;;;;;;;4902752;29;20189;-85
2023/09/08 03:49:57;;;;;;;7.80;5.90;;;;;;;;;;4902084;29;20214;-84
2023/09/08 03:53:02;;;;;;;11.83;6.20;;;;;;;;;;4902321;29;20225;-85
2023/09/08 03:56:07;;;;;;;7.60;6.17;;;;;;;;;;4880940;29;20190;-85
2023/09/08 03:59:11;;;;;;;7.87;6.63;;;;;;;;;;4890864;29;20189;-85
2023/09/08 04:02:15;;;;;;;7.23;6.23;;;;;;;;;;4900595;29;20216;-85
2023/09/08 04:05:20;;;;;;;8.00;6.60;;;;;;;;;;4902247;29;20190;-84
2023/09/08 04:08:24;;;;;;;8.53;6.17;;;;;;;;;;4891326;29;20557;-85
2023/09/08 04:11:28;;;;;;;6.90;6.20;;;;;;;;;;4903145;29;20213;-84
2023/09/08 04:14:33;;;;;;;20.17;7.10;;;;;;;;;;4901922;29;20209;-85
2023/09/08 04:17:38;;;;;;;13.60;6.83;;;;;;;;;;4891550;29;20181;-84
2023/09/08 04:20:43;;;;;;;7.37;6.07;;;;;;;;;;4891621;29;20182;-85
2023/09/08 04:23:47;;;;;;;7.80;6.87;;;;;;;;;;4902030;29;20695;-85
2023/09/08 04:26:52;;;;;;;7.37;6.57;;;;;;;;;;4902199;29;20182;-84
2023/09/08 04:29:57;;;;;;;7.40;6.37;;;;;;;;;;4891438;29;20210;-84
2023/09/08 04:33:01;;;;;;;7.90;6.13;;;;;;;;;;4902034;29;20229;-84
2023/09/08 04:36:04;;;;;;;7.57;6.27;;;;;;;;;;4901426;29;20189;-84
2023/09/08 04:39:11;;;;;;;10.60;6.17;;;;;;;;;;4890761;29;20185;-85
2023/09/08 04:42:15;;;;;;;7.37;6.10;;;;;;;;;;4901311;29;20221;-85
2023/09/08 04:45:20;;;;;;;10.60;6.30;;;;;;;;;;4912171;29;20185;-85
2023/09/08 04:48:24;;;;;;;7.87;6.70;;;;;;;;;;4880660;29;20186;-84
2023/09/08 04:51:28;;;;;;;11.67;6.80;;;;;;;;;;4901113;29;20217;-84
2023/09/08 04:54:32;;;;;;;9.37;7.17;;;;;;;;;;4890777;29;20182;-84
2023/09/08 04:57:36;;;;;;;8.50;6.80;;;;;;;;;;4900715;29;20181;-84
2023/09/08 05:00:40;;;;;;;7.80;7.00;;;;;;;;;;4913471;29;20208;-84
2023/09/08 05:03:45;;;;;;;8.90;7.20;;;;;;;;;;4920032;29;20220;-85
2023/09/08 05:06:50;;;;;;;8.23;7.10;;;;;;;;;;4909653;29;20193;-85
2023/09/08 05:09:56;;;;;;;10.10;7.03;;;;;;;;;;4909842;29;20213;-84
2023/09/08 05:13:00;;;;;;;8.07;6.60;;;;;;;;;;4921446;29;20224;-85
2023/09/08 05:16:11;;;;;;;11.40;7.20;;;;;;;;;;4901891;29;20189;-84
2023/09/08 05:19:18;;;;;;;8.40;6.30;;;;;;;;;;4912424;29;20177;-85
2023/09/08 05:22:22;;;;;;;8.63;6.27;;;;;;;;;;4913232;29;20220;-84
2023/09/08 05:25:27;;;;;;;9.43;6.50;;;;;;;;;;4923984;29;20185;-85
2023/09/08 05:28:31;;;;;;;9.20;5.87;;;;;;;;;;4923272;29;20185;-85
2023/09/08 05:31:35;;;;;;;7.60;6.20;;;;;;;;;;4923619;29;20216;-85
2023/09/08 05:34:39;;;;;;;11.00;7.17;;;;;;;;;;4912567;29;20189;-84
2023/09/08 05:37:43;;;;;;;9.93;7.53;;;;;;;;;;4923505;29;20185;-85
2023/09/08 05:40:48;;;;;;;8.57;7.13;;;;;;;;;;4913405;29;20184;-85
2023/09/08 05:43:53;;;;;;;12.37;7.07;;;;;;;;;;4921576;29;20230;-85
2023/09/08 05:46:57;;;;;;;10.00;6.40;;;;;;;;;;4911704;29;20181;-84
2023/09/08 05:50:02;;;;;;;14.83;8.47;;;;;;;;;;4912921;29;20208;-85
2023/09/08 05:53:07;;;;;;;15.40;9.23;;;;;;;;;;4912781;29;20702;-85
2023/09/08 05:56:11;;;;;;;10.23;8.73;;;;;;;;;;4922853;29;20192;-85
2023/09/08 05:59:18;;;;;;;16.43;11.83;;;;;;;;;;4911505;29;20532;-85
2023/09/08 06:02:22;;;;;;;17.93;11.83;;;;;;;;;;4922676;29;20713;-84
2023/09/08 06:05:26;;;;;;;20.80;12.50;;;;;;;;;;4923145;29;20191;-85
2023/09/08 06:08:31;;;;;;;16.47;10.40;;;;;;;;;;4922722;29;20266;-86
2023/09/08 06:11:35;;;;;;;18.77;11.00;;;;;;;;;;4922657;29;20215;-85
2023/09/08 06:14:40;;;;;;;20.10;10.53;;;;;;;;;;4915445;29;20231;-85
2023/09/08 06:17:46;;;;;;;27.40;9.93;;;;;;;;;;4903487;29;20187;-85
2023/09/08 06:20:52;;;;;;;23.53;10.17;;;;;;;;;;4913000;29;20662;-85
2023/09/08 06:23:57;;;;;;;17.53;9.47;;;;;;;;;;4912418;29;20228;-85
2023/09/08 06:27:01;;;;;;;28.63;11.03;;;;;;;;;;4911202;29;20193;-85
2023/09/08 06:30:06;;;;;;;16.47;11.90;;;;;;;;;;4914234;29;20188;-85
2023/09/08 06:33:11;;;;;;;23.77;15.07;;;;;;;;;;4921530;29;20236;-85
2023/09/08 06:36:16;;;;;;;26.63;17.73;;;;;;;;;;4903196;29;20192;-85
2023/09/08 06:39:20;;;;;;;27.40;16.90;;;;;;;;;;4915553;29;20192;-85
2023/09/08 06:42:24;;;;;;;24.53;15.73;;;;;;;;;;4915116;29;20224;-85
2023/09/08 06:45:38;;;;;;;31.83;16.97;;;;;;;;;;4915127;29;20192;-85
2023/09/08 06:48:43;;;;;;;25.27;15.00;;;;;;;;;;4915367;29;20547;-85
2023/09/08 06:51:48;;;;;;;37.30;13.00;;;;;;;;;;4922377;29;20240;-85
2023/09/08 06:54:53;;;;;;;29.87;12.40;;;;;;;;;;4921165;29;20197;-85
2023/09/08 06:57:57;;;;;;;21.80;9.43;;;;;;;;;;4898733;29;20188;-85
2023/09/08 07:01:01;;;;;;;13.17;7.73;;;;;;;;;;4909708;29;20185;-85
2023/09/08 07:04:06;;;;;;;28.40;7.60;;;;;;;;;;4900056;29;20225;-85
2023/09/08 07:07:10;;;;;;;9.57;5.57;;;;;;;;;;4900093;29;20182;-85
2023/09/08 07:10:16;;;;;;;6.97;5.47;;;;;;;;;;4889830;29;20181;-85
2023/09/08 07:13:20;;;;;;;7.23;5.63;;;;;;;;;;4900090;29;20232;-85
2023/09/08 07:16:25;;;;;;;8.93;6.37;;;;;;;;;;4900503;29;20638;-85
2023/09/08 07:19:29;;;;;;;8.70;6.53;;;;;;;;;;4889920;29;20529;-85
2023/09/08 07:22:34;;;;;;;8.43;5.90;;;;;;;;;;4900438;29;20221;-85
2023/09/08 07:25:38;;;;;;;16.40;6.03;;;;;;;;;;4889669;29;20194;-85
2023/09/08 07:28:43;;;;;;;9.33;5.80;;;;;;;;;;4889721;29;20189;-85
2023/09/08 07:31:51;;;;;;;69.83;9.97;;;;;;;;;;4892678;29;20221;-87
2023/09/08 07:34:56;;;;;;;7.33;5.50;;;;;;;;;;4907684;29;20184;-88
2023/09/08 07:38:01;;;;;;;6.67;5.47;;;;;;;;;;4907689;29;20185;-88
2023/09/08 07:41:05;;;;;;;7.20;5.17;;;;;;;;;;4918550;29;20189;-87
2023/09/08 07:44:12;;;;;;;7.33;4.97;;;;;;;;;;4907730;29;20571;-88
2023/09/08 07:47:17;;;;;;;30.57;5.80;;;;;;;;;;4918209;29;20185;-87
2023/09/08 07:50:26;;;;;;;12.00;6.90;;;;;;;;;;4907483;29;20181;-87
2023/09/08 07:53:33;;;;;;;8.93;5.53;;;;;;;;;;4896935;29;20216;-87
2023/09/08 07:56:37;;;;;;;8.53;6.80;;;;;;;;;;4909792;29;20185;-87
2023/09/08 07:59:41;;;;;;;7.93;5.80;;;;;;;;;;4906382;29;20238;-87
2023/09/08 08:02:48;;;;;;;9.97;5.40;;;;;;;;;;4902083;29;20224;-87
2023/09/08 08:05:52;;;;;;;6.30;5.47;;;;;;;;;;4903507;29;20671;-87
2023/09/08 08:08:56;;;;;;;8.37;5.77;;;;;;;;;;4887357;29;20186;-87
2023/09/08 08:12:00;;;;;;;11.63;5.37;;;;;;;;;;4898683;29;20229;-87
2023/09/08 08:15:05;;;;;;;9.27;5.60;;;;;;;;;;4898043;29;20663;-86
2023/09/08 08:18:09;;;;;;;8.53;5.07;;;;;;;;;;4887529;29;20543;-86
2023/09/08 08:21:13;;;;;;;7.80;4.97;;;;;;;;;;4897949;29;20186;-86
2023/09/08 08:24:19;;;;;;;8.33;4.93;;;;;;;;;;4897716;29;20221;-87
2023/09/08 08:27:23;;;;;;;6.13;4.73;;;;;;;;;;4887409;29;20550;-87
2023/09/08 08:30:27;;;;;;;5.93;5.07;;;;;;;;;;4887057;29;20197;-87
2023/09/08 08:33:32;;;;;;;7.30;5.00;;;;;;;;;;4919942;29;20606;-86
2023/09/08 08:36:36;;;;;;;12.93;5.00;;;;;;;;;;4901357;29;20675;-87
2023/09/08 08:39:41;;;;;;;7.10;4.83;;;;;;;;;;4898476;29;20185;-87
2023/09/08 08:42:45;;;;;;;11.27;4.90;;;;;;;;;;4900319;29;20233;-87
2023/09/08 08:45:50;;;;;;;8.77;5.72;;;;;;;;;;4903541;29;20672;-87
2023/09/08 08:48:55;;;;;;;7.32;5.32;;;;;;;;;;4901012;29;20530;-87
2023/09/08 08:52:03;;;;;;;11.90;5.05;;;;;;;;;;4904629;29;20266;-87
2023/09/08 08:55:08;;;;;;;12.98;4.95;;;;;;;;;;4890696;29;20194;-87
2023/09/08 08:58:14;;;;;;;8.88;4.97;;;;;;;;;;4901706;29;20188;-85
2023/09/08 09:01:20;;;;;;;18.23;5.47;;;;;;;;;;4901516;29;20635;-85
2023/09/08 09:04:26;;;;;;;9.73;4.63;;;;;;;;;;4913636;29;20201;-85
2023/09/08 09:07:31;;;;;;;5.25;4.50;;;;;;;;;;4909438;29;20639;-85
2023/09/08 09:10:35;;;;;;;6.43;5.28;;;;;;;;;;4920754;29;20189;-86
2023/09/08 09:13:39;;;;;;;5.88;5.20;;;;;;;;;;4919806;29;20224;-85
2023/09/08 09:16:44;;;;;;;6.40;5.22;;;;;;;;;;4908937;29;20189;-86
2023/09/08 09:19:48;;;;;;;9.38;5.25;;;;;;;;;;4909295;29;20182;-86
2023/09/08 09:22:52;;;;;;;6.85;5.53;;;;;;;;;;4909485;29;20221;-86
2023/09/08 09:25:57;;;;;;;17.38;5.90;;;;;;;;;;4909268;29;20181;-86
2023/09/08 09:29:02;;;;;;;11.07;6.05;;;;;;;;;;4909368;29;20185;-86
2023/09/08 09:32:10;;;;;;;7.93;6.47;;;;;;;;;;4908428;29;20225;-86
2023/09/08 09:35:16;;;;;;;24.52;9.75;;;;;;;;;;4909141;29;20190;-86
2023/09/08 09:38:21;;;;;;;7.97;5.43;;;;;;;;;;4916517;29;20209;-86
2023/09/08 09:41:28;;;;;;;41.47;6.65;;;;;;;;;;4904421;29;20222;-86
2023/09/08 09:44:32;;;;;;;8.55;5.22;;;;;;;;;;4900736;29;20190;-86
2023/09/08 09:47:36;;;;;;;5.68;5.03;;;;;;;;;;4919456;29;20563;-86
2023/09/08 09:50:42;;;;;;;14.10;6.03;;;;;;;;;;4919478;29;20186;-86
2023/09/08 09:53:49;;;;;;;13.32;5.47;;;;;;;;;;4914187;29;20230;-86
2023/09/08 09:56:53;;;;;;;8.30;5.57;;;;;;;;;;4918378;29;20557;-86
2023/09/08 09:59:58;;;;;;;8.70;5.10;;;;;;;;;;4915388;29;20205;-86
2023/09/08 10:03:04;;;;;;;7.90;4.97;;;;;;;;;;4919437;29;20240;-88
2023/09/08 10:06:09;;;;;;;12.40;5.45;;;;;;;;;;4908515;29;20185;-88
2023/09/08 10:09:15;;;;;;;9.75;5.68;;;;;;;;;;4918796;29;20201;-87
2023/09/08 10:12:19;;;;;;;10.48;5.00;;;;;;;;;;4919578;29;20217;-88
2023/09/08 10:15:24;;;;;;;5.47;4.90;;;;;;;;;;4908420;29;20177;-88
2023/09/08 10:18:29;;;;;;;5.82;4.78;;;;;;;;;;4908110;29;20535;-88
2023/09/08 10:21:39;;;;;;;6.97;5.78;;;;;;;;;;4919054;29;20213;-88
2023/09/08 10:24:45;;;;;;;6.78;5.25;;;;;;;;;;4918840;29;20635;-88
2023/09/08 10:27:50;;;;;;;8.15;5.15;;;;;;;;;;4919125;29;20185;-88
2023/09/08 10:30:55;;;;;;;6.80;5.20;;;;;;;;;;4907853;29;20631;-88
2023/09/08 10:34:00;;;;;;;6.28;4.63;;;;;;;;;;4919097;29;20221;-88
2023/09/08 10:37:25;;;;;;;7.55;5.38;;;;;;;;;;4908013;29;20189;-88
2023/09/08 10:40:33;;;;;;;5.97;5.10;;;;;;;;;;4918693;29;20182;-88
2023/09/08 10:43:37;;;;;;;9.38;5.13;;;;;;;;;;4907457;29;20224;-88
2023/09/08 10:46:41;;;;;;;5.57;4.78;;;;;;;;;;4907624;29;20185;-88
2023/09/08 10:49:45;;;;;;;8.88;4.97;;;;;;;;;;4908426;29;20182;-88
2023/09/08 10:53:14;;;;;;;24.38;5.47;;;;;;;;;;4907828;29;20216;-88
2023/09/08 10:56:18;;;;;;;8.27;5.40;;;;;;;;;;4907795;29;20193;-88
2023/09/08 10:59:28;;;;;;;10.00;5.45;;;;;;;;;;4918515;29;20189;-88
2023/09/08 11:02:44;;;;;;;17.95;5.18;;;;;;;;;;4906960;29;20237;-88
2023/09/08 11:05:48;;;;;;;7.35;6.00;;;;;;;;;;4918124;29;20527;-88
2023/09/08 11:08:54;;;;;;;6.35;5.72;;;;;;;;;;4918210;29;20530;-88
2023/09/08 11:12:02;;;;;;;6.22;5.57;;;;;;;;;;4918236;29;20201;-88
2023/09/08 11:15:08;;;;;;;10.38;5.85;;;;;;;;;;4917506;29;20212;-88
2023/09/08 11:18:13;;;;;;;9.88;5.30;;;;;;;;;;4918197;29;20181;-88
2023/09/08 11:21:17;;;;;;;7.03;5.40;;;;;;;;;;4907227;29;20189;-88
2023/09/08 11:24:21;;;;;;;7.03;5.32;;;;;;;;;;4896130;29;20177;-88
2023/09/08 11:27:25;;;;;;;6.00;5.40;;;;;;;;;;4917653;29;20185;-88
2023/09/08 11:30:29;;;;;;;7.05;4.95;;;;;;;;;;4896211;29;20193;-88
2023/09/08 11:33:39;;;;;;;7.88;5.50;;;;;;;;;;4917714;29;20216;-88
2023/09/08 11:36:43;;;;;;;31.02;6.68;;;;;;;;;;4917818;29;20181;-88
2023/09/08 11:39:47;;;;;;;11.20;5.63;;;;;;;;;;4917537;29;20189;-88
2023/09/08 11:42:53;;;;;;;50.47;8.48;;;;;;;;;;4917295;29;20237;-88
2023/09/08 11:45:57;;;;;;;16.17;6.25;;;;;;;;;;4906898;29;20186;-88
2023/09/08 11:49:04;;;;;;;7.45;5.53;;;;;;;;;;4917681;29;20189;-88
2023/09/08 11:52:08;;;;;;;7.25;6.53;;;;;;;;;;4917921;29;20181;-88
2023/09/08 11:55:13;;;;;;;24.83;7.55;;;;;;;;;;4917504;29;20647;-88
2023/09/08 11:58:19;;;;;;;10.77;5.55;;;;;;;;;;4917902;29;20181;-88
2023/09/08 12:01:23;;;;;;;19.42;6.38;;;;;;;;;;4918137;29;20535;-88
2023/09/08 12:04:27;;;;;;;13.57;6.40;;;;;;;;;;4906406;29;20185;-88
2023/09/08 12:07:31;;;;;;;7.60;5.45;;;;;;;;;;4906676;29;20189;-88
2023/09/08 12:10:42;;;;;;;7.78;5.75;;;;;;;;;;4917151;29;20181;-88
2023/09/08 12:13:47;;;;;;;7.40;6.63;;;;;;;;;;4916940;29;20221;-88
2023/09/08 12:17:05;;;;;;;55.35;10.65;;;;;;;;;;4917385;29;20631;-88
2023/09/08 12:20:14;;;;;;;7.75;5.55;;;;;;;;;;4917684;29;20193;-88
2023/09/08 12:23:20;;;;;;;7.35;5.53;;;;;;;;;;4916040;29;20225;-88
2023/09/08 12:26:25;;;;;;;5.97;5.30;;;;;;;;;;4906068;29;20185;-88
2023/09/08 12:29:29;;;;;;;12.05;5.50;;;;;;;;;;4917088;29;20189;-88
2023/09/08 12:32:33;;;;;;;8.40;5.32;;;;;;;;;;4895160;29;20220;-88
2023/09/08 12:35:37;;;;;;;16.90;5.93;;;;;;;;;;4905675;29;20193;-88
2023/09/08 12:38:46;;;;;;;8.27;5.80;;;;;;;;;;4917040;29;20533;-88
2023/09/08 12:41:50;;;;;;;8.00;6.03;;;;;;;;;;4905951;29;20185;-88
2023/09/08 12:44:55;;;;;;;8.75;5.70;;;;;;;;;;4905766;29;20197;-88
2023/09/08 12:48:02;;;;;;;6.95;5.28;;;;;;;;;;4916650;29;20193;-88
2023/09/08 12:51:06;;;;;;;10.07;5.50;;;;;;;;;;4916809;29;20189;-88
2023/09/08 12:54:10;;;;;;;5.90;5.30;;;;;;;;;;4905582;29;20213;-88
2023/09/08 12:57:14;;;;;;;7.80;5.93;;;;;;;;;;4916555;29;20189;-88
2023/09/08 13:00:18;;;;;;;32.90;6.80;;;;;;;;;;4916668;29;20190;-88
2023/09/08 13:03:22;;;;;;;16.00;6.63;;;;;;;;;;4917126;29;20237;-88
2023/09/08 13:06:26;;;;;;;7.68;5.63;;;;;;;;;;4916456;29;20181;-88
2023/09/08 13:09:30;;;;;;;8.60;5.88;;;;;;;;;;4916533;29;20520;-88
2023/09/08 13:12:34;;;;;;;6.28;5.40;;;;;;;;;;4905496;29;20216;-88
2023/09/08 13:15:38;;;;;;;7.03;5.35;;;;;;;;;;4894961;29;20181;-88
2023/09/08 13:18:42;;;;;;;7.05;5.78;;;;;;;;;;4917185;29;20190;-88
2023/09/08 13:21:46;;;;;;;5.85;4.65;;;;;;;;;;4905617;29;20189;-88
2023/09/08 13:24:50;;;;;;;7.80;6.13;;;;;;;;;;4894823;29;20173;-88
2023/09/08 13:27:54;;;;;;;6.47;5.53;;;;;;;;;;4905358;29;20189;-88
2023/09/08 13:30:58;;;;;;;6.97;6.05;;;;;;;;;;4905331;29;20186;-88
2023/09/08 13:34:02;;;;;;;6.68;5.40;;;;;;;;;;4906463;29;20221;-88
2023/09/08 13:37:06;;;;;;;8.10;5.80;;;;;;;;;;4909191;29;20193;-88
2023/09/08 13:40:10;;;;;;;16.45;6.40;;;;;;;;;;4909017;29;20189;-88
2023/09/08 13:43:15;;;;;;;6.95;5.82;;;;;;;;;;4908723;29;20229;-88
2023/09/08 13:46:18;;;;;;;8.00;5.55;;;;;;;;;;4908560;29;20538;-88
2023/09/08 13:49:23;;;;;;;7.10;5.50;;;;;;;;;;4919843;29;20193;-88
2023/09/08 13:52:27;;;;;;;8.05;5.70;;;;;;;;;;4919520;29;20225;-88
2023/09/08 13:55:31;;;;;;;7.10;5.45;;;;;;;;;;4908705;29;20186;-88
2023/09/08 13:58:35;;;;;;;10.77;5.38;;;;;;;;;;4908568;29;20181;-88
2023/09/08 14:01:39;;;;;;;8.55;5.60;;;;;;;;;;4919511;29;20186;-88
2023/09/08 14:04:42;;;;;;;6.65;5.75;;;;;;;;;;4908607;29;20177;-88
2023/09/08 14:07:47;;;;;;;31.13;8.50;;;;;;;;;;4908796;29;20619;-88
2023/09/08 14:10:53;;;;;;;16.65;6.38;;;;;;;;;;4908538;29;20181;-88
2023/09/08 14:13:57;;;;;;;22.45;7.75;;;;;;;;;;4918926;29;20228;-88
2023/09/08 14:17:01;;;;;;;37.40;7.35;;;;;;;;;;4908321;29;20527;-88
2023/09/08 14:20:07;;;;;;;8.48;5.32;;;;;;;;;;4908417;29;20185;-88
2023/09/08 14:23:11;;;;;;;8.65;6.03;;;;;;;;;;4918866;29;20229;-88
2023/09/08 14:26:16;;;;;;;9.20;6.03;;;;;;;;;;4908225;29;20186;-88
2023/09/08 14:29:22;;;;;;;8.23;6.22;;;;;;;;;;4919065;29;20186;-88
2023/09/08 14:32:26;;;;;;;8.90;6.22;;;;;;;;;;4908128;29;20217;-87
2023/09/08 14:35:35;;;;;;;6.95;5.78;;;;;;;;;;4918720;29;20189;-87
2023/09/08 14:38:38;;;;;;;9.52;5.55;;;;;;;;;;4918635;29;20181;-87
2023/09/08 14:41:45;;;;;;;21.48;6.00;;;;;;;;;;4918605;29;20185;-87
2023/09/08 14:44:51;;;;;;;8.25;5.18;;;;;;;;;;4896651;29;20178;-88
2023/09/08 14:47:55;;;;;;;10.55;5.80;;;;;;;;;;4907784;29;20189;-87
2023/09/08 14:51:00;;;;;;;7.38;6.20;;;;;;;;;;4907848;29;20529;-87
2023/09/08 14:54:04;;;;;;;8.80;5.53;;;;;;;;;;4907744;29;20225;-87
2023/09/08 14:57:08;;;;;;;8.82;5.95;;;;;;;;;;4907673;29;20627;-87
2023/09/08 15:00:13;;;;;;;8.35;5.75;;;;;;;;;;4918703;29;20185;-83
2023/09/08 15:03:17;;;;;;;6.35;5.47;;;;;;;;;;4919625;29;20224;-84
2023/09/08 15:06:21;;;;;;;13.43;6.25;;;;;;;;;;4909605;29;20186;-84
2023/09/08 15:09:25;;;;;;;12.63;6.05;;;;;;;;;;4921618;29;20193;-83
2023/09/08 15:12:30;;;;;;;10.63;5.63;;;;;;;;;;4919358;29;20225;-84
2023/09/08 15:15:34;;;;;;;10.98;5.80;;;;;;;;;;4919072;29;20177;-84
2023/09/08 15:18:38;;;;;;;6.38;5.68;;;;;;;;;;4919390;29;20189;-84
2023/09/08 15:21:42;;;;;;;8.23;5.60;;;;;;;;;;4919094;29;20185;-83
2023/09/08 15:24:46;;;;;;;16.25;6.93;;;;;;;;;;4919209;29;20212;-83
2023/09/08 15:27:50;;;;;;;11.82;6.18;;;;;;;;;;4919006;29;20185;-84
2023/09/08 15:30:55;;;;;;;22.52;6.97;;;;;;;;;;4919332;29;20192;-84
2023/09/08 15:33:59;;;;;;;9.90;5.90;;;;;;;;;;4919960;29;20222;-84
2023/09/08 15:37:03;;;;;;;7.03;6.00;;;;;;;;;;4918401;29;20187;-83
2023/09/08 15:40:13;;;;;;;15.55;6.13;;;;;;;;;;4919534;29;20181;-83
2023/09/08 15:43:17;;;;;;;13.88;6.20;;;;;;;;;;4919364;29;20230;-84
2023/09/08 15:46:22;;;;;;;9.90;5.93;;;;;;;;;;4920287;29;20187;-84
2023/09/08 15:49:26;;;;;;;13.75;6.60;;;;;;;;;;4919209;29;20209;-83
2023/09/08 15:52:30;;;;;;;7.97;6.07;;;;;;;;;;4920256;29;20223;-83
2023/09/08 15:55:34;;;;;;;6.43;5.82;;;;;;;;;;4920429;29;20187;-83
2023/09/08 15:58:38;;;;;;;7.05;5.35;;;;;;;;;;4920066;29;20195;-83
2023/09/08 16:01:42;;;;;;;7.10;5.82;;;;;;;;;;4918774;29;20197;-86
2023/09/08 16:04:46;;;;;;;11.45;6.60;;;;;;;;;;4918767;29;20677;-86
2023/09/08 16:07:51;;;;;;;9.13;5.72;;;;;;;;;;4918941;29;20191;-85
2023/09/08 16:10:55;;;;;;;11.23;6.40;;;;;;;;;;4907362;29;20194;-86
2023/09/08 16:13:59;;;;;;;7.28;5.75;;;;;;;;;;4907301;29;20236;-85
2023/09/08 16:17:03;;;;;;;38.28;7.03;;;;;;;;;;4918345;29;20527;-86
2023/09/08 16:20:08;;;;;;;11.20;6.57;;;;;;;;;;4918315;29;20186;-86
2023/09/08 16:23:12;;;;;;;9.48;6.63;;;;;;;;;;4918691;29;20222;-85
2023/09/08 16:26:16;;;;;;;8.32;6.03;;;;;;;;;;4919128;29;20196;-85
2023/09/08 16:29:20;;;;;;;9.18;6.25;;;;;;;;;;4918122;29;20194;-86
2023/09/08 16:32:24;;;;;;;10.55;6.97;;;;;;;;;;4918406;29;20228;-86
2023/09/08 16:35:28;;;;;;;66.53;11.90;;;;;;;;;;4917929;29;20634;-86
2023/09/08 16:38:34;;;;;;;33.05;8.00;;;;;;;;;;4918190;29;20664;-85
2023/09/08 16:41:38;;;;;;;20.35;7.97;;;;;;;;;;4918605;29;20187;-86
2023/09/08 16:44:43;;;;;;;12.40;6.78;;;;;;;;;;4918627;29;20187;-85
2023/09/08 16:47:47;;;;;;;12.20;6.68;;;;;;;;;;4918835;29;20189;-85
2023/09/08 16:50:51;;;;;;;10.02;5.95;;;;;;;;;;4919545;29;20186;-84
2023/09/08 16:53:57;;;;;;;8.15;6.10;;;;;;;;;;4908392;29;20233;-84
2023/09/08 16:57:01;;;;;;;22.23;6.80;;;;;;;;;;4920566;29;20189;-84
2023/09/08 17:00:07;;;;;;;20.33;6.57;;;;;;;;;;4919489;29;20192;-85
2023/09/08 17:03:11;;;;;;;14.53;7.03;;;;;;;;;;4919758;29;20220;-86
2023/09/08 17:06:16;;;;;;;9.90;5.82;;;;;;;;;;4920388;29;20190;-86
2023/09/08 17:09:20;;;;;;;8.83;5.70;;;;;;;;;;4921639;29;20534;-85
2023/09/08 17:12:26;;;;;;;7.50;5.97;;;;;;;;;;4912114;29;20219;-85
2023/09/08 17:15:30;;;;;;;8.27;5.73;;;;;;;;;;4912852;29;20214;-85
2023/09/08 17:18:34;;;;;;;7.37;5.77;;;;;;;;;;4925888;29;20190;-86
2023/09/08 17:21:38;;;;;;;7.43;5.83;;;;;;;;;;4912797;29;20637;-86
2023/09/08 17:24:42;;;;;;;8.90;6.30;;;;;;;;;;4922424;29;20185;-85
2023/09/08 17:27:46;;;;;;;8.17;6.27;;;;;;;;;;4912114;29;20182;-85
2023/09/08 17:30:51;;;;;;;7.40;5.90;;;;;;;;;;4923184;29;20180;-86
2023/09/08 17:33:55;;;;;;;10.30;5.80;;;;;;;;;;4922042;29;20235;-85
2023/09/08 17:37:02;;;;;;;8.43;5.90;;;;;;;;;;4911477;29;20186;-85
2023/09/08 17:40:09;;;;;;;8.50;6.07;;;;;;;;;;4922298;29;20189;-85
2023/09/08 17:43:13;;;;;;;6.47;5.80;;;;;;;;;;4920954;29;20227;-85
2023/09/08 17:46:17;;;;;;;8.93;6.60;;;;;;;;;;4920928;29;20182;-85
2023/09/08 17:49:22;;;;;;;8.67;6.13;;;;;;;;;;4910162;29;20186;-85
2023/09/08 17:52:29;;;;;;;11.13;6.13;;;;;;;;;;4920961;29;20229;-85
2023/09/08 17:55:33;;;;;;;8.80;6.60;;;;;;;;;;4909990;29;20217;-85
2023/09/08 17:58:37;;;;;;;13.27;7.10;;;;;;;;;;4922324;29;20524;-85
2023/09/08 18:01:41;;;;;;;11.53;7.03;;;;;;;;;;4922418;29;20191;-85
2023/09/08 18:04:45;;;;;;;7.60;6.77;;;;;;;;;;4922030;29;20185;-85
2023/09/08 18:07:50;;;;;;;7.77;6.97;;;;;;;;;;4921666;29;20528;-85
2023/09/08 18:11:02;;;;;;;8.00;6.73;;;;;;;;;;4921968;29;20632;-85
2023/09/08 18:14:07;;;;;;;8.37;7.33;;;;;;;;;;4921880;29;20228;-85
2023/09/08 18:17:11;;;;;;;10.97;6.60;;;;;;;;;;4921222;29;20227;-85
2023/09/08 18:20:15;;;;;;;9.10;7.00;;;;;;;;;;4920662;29;20177;-85
2023/09/08 18:23:19;;;;;;;7.53;6.73;;;;;;;;;;4920539;29;20220;-85